Time;durP1;ratioP1;P1;durP2;ratioP2;P2;SDS_P1;SDS_P2;PMS_P1;PMS_P2;Temp;Humidity;BMP_temperature;BMP_pressure;BME280_temperature;BME280_humidity;BME280_pressure;Samples;Min_cycle;Max_cycle;Signal;HPM_P1;HPM_P2
2021/08/04 00:01:21;;;;;;;26.60;14.05;;;13.60;82.40;;;;;;5090244;28;20060;-73
2021/08/04 00:03:49;;;;;;;24.10;13.80;;;13.50;82.60;;;;;;5090449;28;20372;-73
2021/08/04 00:06:34;;;;;;;26.83;13.32;;;13.50;82.90;;;;;;5083107;28;20052;-72
2021/08/04 00:09:02;;;;;;;23.20;13.60;;;13.50;83.00;;;;;;5091701;28;20043;-73
2021/08/04 00:11:30;;;;;;;21.48;12.77;;;13.40;83.10;;;;;;5081410;28;20044;-73
2021/08/04 00:13:57;;;;;;;20.75;13.52;;;13.30;83.20;;;;;;5085053;28;20048;-73
2021/08/04 00:16:25;;;;;;;19.65;13.55;;;13.30;83.30;;;;;;5087895;28;20047;-73
2021/08/04 00:18:53;;;;;;;20.02;12.85;;;13.30;83.50;;;;;;5084766;28;20044;-73
2021/08/04 00:21:20;;;;;;;22.75;12.90;;;13.10;83.70;;;;;;5090132;28;20051;-72
2021/08/04 00:23:48;;;;;;;23.50;13.15;;;13.10;83.90;;;;;;5083343;28;20048;-73
2021/08/04 00:26:16;;;;;;;26.92;13.32;;;13.10;84.10;;;;;;5089296;28;20052;-73
2021/08/04 00:28:43;;;;;;;21.20;13.52;;;13.00;84.30;;;;;;5075030;28;20056;-73
2021/08/04 00:31:11;;;;;;;21.63;13.75;;;13.00;84.50;;;;;;5087775;28;20032;-73
2021/08/04 00:33:39;;;;;;;18.90;13.57;;;12.90;84.60;;;;;;5078886;28;20739;-73
2021/08/04 00:36:07;;;;;;;20.15;13.95;;;12.90;84.80;;;;;;5071295;28;20070;-73
2021/08/04 00:38:35;;;;;;;21.63;14.65;;;12.80;85.00;;;;;;5071492;28;20063;-73
2021/08/04 00:41:04;;;;;;;21.90;14.25;;;12.80;85.20;;;;;;5087193;28;20048;-74
2021/08/04 00:43:33;;;;;;;22.88;15.35;;;12.80;85.40;;;;;;5063568;28;20406;-73
2021/08/04 00:46:01;;;;;;;23.77;14.50;;;12.70;85.50;;;;;;5089078;28;20036;-72
2021/08/04 00:48:29;;;;;;;22.35;14.32;;;12.70;85.70;;;;;;5078768;28;20044;-71
2021/08/04 00:50:56;;;;;;;22.90;15.02;;;12.70;86.00;;;;;;5089884;28;20503;-73
2021/08/04 00:53:26;;;;;;;21.05;12.90;;;12.60;86.10;;;;;;5068961;28;20048;-71
2021/08/04 00:55:58;;;;;;;25.77;14.35;;;12.50;86.20;;;;;;5094044;28;20055;-71
2021/08/04 00:58:32;;;;;;;26.00;15.65;;;12.40;86.40;;;;;;5082905;28;20444;-72
2021/08/04 01:01:13;;;;;;;21.98;15.20;;;12.30;86.60;;;;;;5094873;28;20070;-71
2021/08/04 01:03:44;;;;;;;22.80;13.93;;;12.30;86.90;;;;;;5094216;28;20051;-72
2021/08/04 01:06:43;;;;;;;29.02;16.30;;;12.20;87.00;;;;;;5091397;28;20052;-73
2021/08/04 01:09:12;;;;;;;29.58;15.45;;;12.10;87.40;;;;;;4998400;28;20213;-73
2021/08/04 01:11:47;;;;;;;25.20;15.55;;;12.10;87.30;;;;;;5012323;28;20065;-72
2021/08/04 01:14:19;;;;;;;28.65;16.20;;;12.10;87.40;;;;;;5016145;28;20064;-72
2021/08/04 01:16:48;;;;;;;30.58;16.35;;;12.00;87.40;;;;;;4993246;28;20492;-72
2021/08/04 01:19:31;;;;;;;33.15;17.77;;;12.00;87.50;;;;;;5023033;28;20041;-72
2021/08/04 01:22:31;;;;;;;28.95;15.70;;;11.80;87.70;;;;;;5015216;28;20096;-72
2021/08/04 01:25:10;;;;;;;25.95;14.95;;;11.80;87.90;;;;;;5024563;28;20188;-72
2021/08/04 01:27:54;;;;;;;27.85;15.98;;;11.80;87.90;;;;;;5013644;28;20057;-72
2021/08/04 01:30:22;;;;;;;24.73;14.45;;;11.70;87.90;;;;;;5031550;28;20049;-72
2021/08/04 01:32:50;;;;;;;25.23;14.38;;;11.70;88.00;;;;;;5001738;28;20057;-72
2021/08/04 01:35:19;;;;;;;27.13;14.00;;;11.70;88.10;;;;;;5012158;28;20072;-72
2021/08/04 01:37:47;;;;;;;31.73;16.65;;;11.70;88.20;;;;;;5030752;28;20057;-72
2021/08/04 01:40:16;;;;;;;26.60;15.98;;;11.70;88.30;;;;;;5012300;28;20060;-72
2021/08/04 01:42:44;;;;;;;26.65;14.93;;;11.70;88.30;;;;;;5022828;28;20076;-72
2021/08/04 01:45:13;;;;;;;26.38;14.35;;;11.80;88.30;;;;;;5018468;28;20061;-72
2021/08/04 01:47:43;;;;;;;24.58;13.65;;;11.80;88.30;;;;;;5082203;28;20036;-73
2021/08/04 01:50:13;;;;;;;24.52;14.05;;;11.80;88.30;;;;;;5092542;28;20051;-72
2021/08/04 01:52:43;;;;;;;20.88;13.38;;;11.80;88.30;;;;;;5065678;28;20051;-73
2021/08/04 01:55:12;;;;;;;17.38;13.27;;;11.80;88.20;;;;;;5093428;28;20047;-72
2021/08/04 01:57:40;;;;;;;20.55;13.38;;;11.80;88.10;;;;;;5092399;28;20383;-72
2021/08/04 02:00:08;;;;;;;22.42;13.93;;;11.80;88.10;;;;;;5070952;28;20048;-73
2021/08/04 02:02:44;;;;;;;21.55;14.25;;;11.80;88.00;;;;;;5092309;28;20036;-72
2021/08/04 02:05:13;;;;;;;28.67;14.55;;;11.80;88.10;;;;;;5092555;28;20206;-72
2021/08/04 02:08:17;;;;;;;23.95;14.43;;;11.80;88.10;;;;;;5093570;28;20059;-72
2021/08/04 02:11:00;;;;;;;27.10;14.38;;;11.70;88.30;;;;;;5072776;28;20044;-72
2021/08/04 02:13:56;;;;;;;26.50;15.13;;;11.70;88.30;;;;;;5086143;28;20051;-72
2021/08/04 02:16:45;;;;;;;24.08;15.10;;;11.60;88.50;;;;;;5090154;28;20458;-73
2021/08/04 02:19:38;;;;;;;21.30;14.27;;;11.60;88.60;;;;;;5070762;28;20505;-73
2021/08/04 02:22:11;;;;;;;33.55;18.08;;;11.50;88.70;;;;;;5091747;28;20044;-72
2021/08/04 02:24:58;;;;;;;34.58;17.25;;;11.50;88.70;;;;;;5083357;28;20056;-73
2021/08/04 02:27:27;;;;;;;38.13;16.65;;;11.50;88.90;;;;;;5091891;28;20368;-72
2021/08/04 02:29:59;;;;;;;41.92;15.60;;;11.50;88.80;;;;;;5075984;28;20406;-72
2021/08/04 02:32:27;;;;;;;30.02;15.98;;;11.50;88.90;;;;;;5081308;28;20048;-72
2021/08/04 02:34:55;;;;;;;31.65;15.55;;;11.40;88.90;;;;;;5089022;28;20044;-72
2021/08/04 02:37:24;;;;;;;25.13;14.40;;;11.40;89.00;;;;;;5082728;28;20297;-72
2021/08/04 02:39:52;;;;;;;30.83;16.05;;;11.40;89.10;;;;;;5093228;28;20044;-72
2021/08/04 02:42:20;;;;;;;28.98;15.18;;;11.40;89.20;;;;;;5090060;28;20051;-72
2021/08/04 02:44:47;;;;;;;24.42;14.68;;;11.30;89.20;;;;;;5092892;28;20056;-72
2021/08/04 02:47:15;;;;;;;23.60;15.10;;;11.30;89.30;;;;;;5088205;28;20060;-73
2021/08/04 02:49:44;;;;;;;23.10;14.45;;;11.30;89.40;;;;;;5069737;28;20056;-72
2021/08/04 02:52:13;;;;;;;21.50;14.98;;;11.30;89.50;;;;;;5080040;28;20045;-72
2021/08/04 02:54:46;;;;;;;27.70;15.80;;;11.30;89.50;;;;;;5084507;28;20475;-73
2021/08/04 02:57:14;;;;;;;22.80;14.88;;;11.30;89.70;;;;;;5091447;28;20403;-73
2021/08/04 02:59:42;;;;;;;22.88;14.20;;;11.20;89.60;;;;;;5091920;28;20040;-70
2021/08/04 03:02:09;;;;;;;25.65;14.50;;;11.20;89.70;;;;;;5092376;28;20044;-73
2021/08/04 03:04:37;;;;;;;22.45;14.27;;;11.10;89.70;;;;;;5092240;28;20044;-73
2021/08/04 03:07:05;;;;;;;30.25;16.38;;;11.10;89.80;;;;;;5084678;28;20040;-74
2021/08/04 03:09:33;;;;;;;20.95;14.00;;;11.10;90.00;;;;;;5088536;28;20422;-72
2021/08/04 03:12:01;;;;;;;28.88;15.65;;;11.10;90.00;;;;;;5085810;28;20051;-72
2021/08/04 03:14:30;;;;;;;29.88;16.05;;;11.00;90.00;;;;;;5091590;28;20047;-72
2021/08/04 03:16:57;;;;;;;34.55;17.98;;;11.00;90.10;;;;;;5084588;28;20047;-71
2021/08/04 03:19:25;;;;;;;27.08;14.65;;;10.90;90.10;;;;;;5085470;28;20055;-71
2021/08/04 03:21:53;;;;;;;31.30;15.77;;;10.90;90.20;;;;;;5091764;28;20438;-72
2021/08/04 03:24:20;;;;;;;26.08;14.85;;;10.90;90.30;;;;;;5083776;28;20040;-72
2021/08/04 03:26:48;;;;;;;25.00;15.20;;;10.80;90.30;;;;;;5091679;28;20491;-71
2021/08/04 03:29:15;;;;;;;25.23;13.85;;;10.80;90.40;;;;;;5092574;28;20387;-72
2021/08/04 03:31:43;;;;;;;20.45;12.52;;;10.80;90.50;;;;;;5090943;28;20518;-72
2021/08/04 03:34:11;;;;;;;19.98;12.63;;;10.80;90.50;;;;;;5090514;28;20464;-72
2021/08/04 03:36:38;;;;;;;20.00;12.45;;;10.80;90.50;;;;;;5084697;28;20051;-73
2021/08/04 03:39:06;;;;;;;20.55;12.02;;;10.80;90.50;;;;;;5089522;28;20044;-73
2021/08/04 03:41:36;;;;;;;25.73;14.40;;;10.70;90.50;;;;;;5090944;28;20036;-72
2021/08/04 03:44:04;;;;;;;23.00;13.48;;;10.70;90.60;;;;;;5091139;28;20067;-72
2021/08/04 03:46:32;;;;;;;37.63;18.17;;;10.70;90.60;;;;;;5088474;28;20059;-71
2021/08/04 03:49:00;;;;;;;29.25;14.95;;;10.70;90.60;;;;;;5091141;28;20059;-71
2021/08/04 03:51:27;;;;;;;29.67;16.00;;;10.70;90.70;;;;;;5083467;28;20062;-72
2021/08/04 03:53:55;;;;;;;32.47;16.38;;;10.70;90.80;;;;;;5085912;28;20047;-71
2021/08/04 03:56:23;;;;;;;39.25;19.63;;;10.70;90.80;;;;;;5075037;28;20044;-72
2021/08/04 03:58:51;;;;;;;34.00;16.67;;;10.70;90.80;;;;;;5089893;28;20056;-72
2021/08/04 04:01:18;;;;;;;32.22;16.98;;;10.70;90.80;;;;;;5090830;28;20368;-72
2021/08/04 04:03:46;;;;;;;30.88;16.90;;;10.70;90.90;;;;;;5089276;28;20055;-72
2021/08/04 04:06:13;;;;;;;31.60;15.43;;;10.70;91.00;;;;;;5090764;28;20391;-72
2021/08/04 04:08:42;;;;;;;34.60;16.05;;;10.80;91.00;;;;;;5090223;28;20054;-72
2021/08/04 04:11:10;;;;;;;28.70;15.70;;;10.80;91.00;;;;;;5090919;28;20040;-71
2021/08/04 04:13:37;;;;;;;30.20;14.45;;;10.80;91.00;;;;;;5082872;28;20048;-71
2021/08/04 04:16:05;;;;;;;32.88;15.60;;;10.80;91.00;;;;;;5079325;28;20379;-71
2021/08/04 04:18:33;;;;;;;26.42;14.25;;;10.80;91.00;;;;;;5082118;28;20041;-71
2021/08/04 04:21:00;;;;;;;28.67;14.65;;;10.80;91.00;;;;;;5092074;28;20040;-72
2021/08/04 04:23:28;;;;;;;26.17;14.82;;;10.80;91.00;;;;;;5091662;28;20075;-72
2021/08/04 04:25:56;;;;;;;31.65;14.75;;;10.80;91.00;;;;;;5093766;28;20043;-72
2021/08/04 04:28:23;;;;;;;29.52;16.17;;;10.80;91.00;;;;;;5094422;28;20483;-72
2021/08/04 04:30:51;;;;;;;33.95;15.70;;;10.80;91.10;;;;;;5086943;28;20040;-72
2021/08/04 04:33:18;;;;;;;22.92;14.10;;;10.80;91.10;;;;;;5082723;28;20044;-72
2021/08/04 04:35:46;;;;;;;21.73;12.90;;;10.80;91.30;;;;;;5094576;28;20040;-72
2021/08/04 04:38:15;;;;;;;24.75;12.88;;;10.70;91.30;;;;;;5092483;28;20040;-72
2021/08/04 04:40:42;;;;;;;18.45;11.50;;;10.70;91.40;;;;;;5093728;28;20051;-72
2021/08/04 04:43:10;;;;;;;21.30;12.20;;;10.70;91.50;;;;;;5090666;28;20044;-72
2021/08/04 04:45:38;;;;;;;23.05;13.32;;;10.60;91.50;;;;;;5093064;28;20423;-72
2021/08/04 04:48:06;;;;;;;22.05;12.23;;;10.60;91.40;;;;;;5094676;28;20043;-72
2021/08/04 04:50:34;;;;;;;16.80;11.25;;;10.70;91.40;;;;;;5094141;28;20414;-72
2021/08/04 04:53:02;;;;;;;20.83;12.07;;;10.60;91.30;;;;;;5093430;28;20070;-72
2021/08/04 04:55:29;;;;;;;24.80;13.32;;;10.60;91.30;;;;;;5093272;28;20060;-72
2021/08/04 04:57:57;;;;;;;20.02;12.48;;;10.70;91.30;;;;;;5094806;28;20469;-73
2021/08/04 05:00:25;;;;;;;23.50;13.85;;;10.70;91.20;;;;;;5073896;28;20040;-71
2021/08/04 05:02:52;;;;;;;27.13;14.50;;;10.70;91.10;;;;;;5094916;28;20398;-71
2021/08/04 05:05:21;;;;;;;26.55;14.82;;;10.70;91.10;;;;;;5095347;28;20507;-72
2021/08/04 05:07:49;;;;;;;28.88;14.50;;;10.80;91.10;;;;;;5094932;28;20406;-71
2021/08/04 05:10:16;;;;;;;19.35;13.68;;;10.80;91.10;;;;;;5091248;28;20052;-72
2021/08/04 05:12:44;;;;;;;22.15;13.48;;;10.80;91.10;;;;;;5079518;28;20486;-72
2021/08/04 05:15:13;;;;;;;25.90;14.55;;;10.90;91.10;;;;;;5094406;28;20063;-72
2021/08/04 05:17:41;;;;;;;32.50;15.57;;;10.90;91.00;;;;;;5087176;28;20510;-71
2021/08/04 05:20:09;;;;;;;30.67;16.27;;;11.00;91.00;;;;;;5088628;28;20491;-72
2021/08/04 05:22:42;;;;;;;45.65;17.15;;;11.10;90.90;;;;;;5092892;28;20067;-71
2021/08/04 05:25:11;;;;;;;38.85;16.88;;;11.20;90.90;;;;;;5086677;28;20395;-72
2021/08/04 05:27:39;;;;;;;31.52;16.55;;;11.30;90.80;;;;;;5055644;28;20033;-71
2021/08/04 05:30:07;;;;;;;30.42;15.40;;;11.30;90.70;;;;;;5083901;28;20053;-71
2021/08/04 05:32:34;;;;;;;25.98;14.95;;;11.40;90.60;;;;;;5082076;28;20495;-71
2021/08/04 05:35:02;;;;;;;34.25;15.32;;;11.50;90.50;;;;;;5081555;28;20055;-71
2021/08/04 05:37:30;;;;;;;27.55;15.50;;;11.60;90.50;;;;;;5075014;28;20063;-71
2021/08/04 05:39:57;;;;;;;26.80;15.10;;;11.60;90.40;;;;;;5092671;28;20245;-71
2021/08/04 05:42:25;;;;;;;27.58;15.30;;;11.70;90.40;;;;;;5094645;28;20056;-72
2021/08/04 05:44:52;;;;;;;26.50;13.95;;;11.80;90.30;;;;;;5091066;28;20503;-71
2021/08/04 05:47:20;;;;;;;25.40;14.25;;;11.80;90.20;;;;;;5092954;28;20052;-72
2021/08/04 05:49:48;;;;;;;24.00;13.77;;;11.90;90.10;;;;;;5090314;28;20048;-72
2021/08/04 05:52:16;;;;;;;24.90;13.52;;;12.00;90.00;;;;;;5090624;28;20048;-72
2021/08/04 05:54:44;;;;;;;29.17;14.88;;;12.10;89.90;;;;;;5086272;28;20493;-72
2021/08/04 05:57:11;;;;;;;33.25;16.02;;;12.10;89.80;;;;;;5093704;28;20051;-72
2021/08/04 05:59:39;;;;;;;28.58;15.50;;;12.20;89.70;;;;;;5090308;28;20056;-72
2021/08/04 06:02:07;;;;;;;28.17;15.20;;;12.30;89.50;;;;;;5084780;28;20055;-73
2021/08/04 06:04:35;;;;;;;24.05;13.45;;;12.40;89.40;;;;;;5073225;28;20041;-74
2021/08/04 06:07:03;;;;;;;23.40;12.68;;;12.60;89.30;;;;;;5093803;28;20403;-73
2021/08/04 06:09:31;;;;;;;14.52;11.52;;;12.70;89.10;;;;;;5092149;28;20056;-73
2021/08/04 06:11:59;;;;;;;17.42;12.23;;;12.80;89.00;;;;;;5093633;28;20479;-73
2021/08/04 06:14:26;;;;;;;15.63;12.18;;;12.80;88.70;;;;;;5088848;28;20044;-74
2021/08/04 06:16:54;;;;;;;15.50;11.07;;;12.90;88.50;;;;;;5093398;28;20495;-73
2021/08/04 06:19:21;;;;;;;16.23;11.52;;;13.00;88.30;;;;;;5092375;28;20048;-73
2021/08/04 06:21:49;;;;;;;19.58;11.52;;;13.00;88.00;;;;;;5084813;28;20367;-73
2021/08/04 06:24:17;;;;;;;17.63;11.50;;;13.20;87.90;;;;;;5089615;28;20467;-73
2021/08/04 06:26:44;;;;;;;34.80;14.68;;;13.20;87.80;;;;;;5090318;28;20032;-72
2021/08/04 06:29:12;;;;;;;47.35;15.52;;;13.30;87.70;;;;;;5080514;28;20048;-71
2021/08/04 06:31:39;;;;;;;49.60;14.50;;;13.40;87.70;;;;;;5082835;28;20483;-71
2021/08/04 06:34:07;;;;;;;43.28;14.40;;;13.50;87.80;;;;;;5090871;28;20040;-71
2021/08/04 06:36:35;;;;;;;32.35;14.57;;;13.60;87.70;;;;;;5090523;28;20048;-72
2021/08/04 06:39:02;;;;;;;29.85;14.88;;;13.80;87.60;;;;;;5091161;28;20503;-72
2021/08/04 06:41:30;;;;;;;35.97;14.95;;;13.90;87.40;;;;;;5089898;28;20040;-72
2021/08/04 06:43:58;;;;;;;29.33;15.32;;;14.00;87.20;;;;;;5090201;28;20083;-71
2021/08/04 06:46:34;;;;;;;36.10;15.25;;;14.10;87.00;;;;;;5091363;28;20043;-72
2021/08/04 06:49:03;;;;;;;28.95;15.80;;;14.20;86.80;;;;;;5092799;28;20087;-72
2021/08/04 06:51:32;;;;;;;30.15;15.98;;;14.20;86.60;;;;;;5070343;28;20227;-72
2021/08/04 06:54:00;;;;;;;25.25;17.05;;;14.30;86.40;;;;;;5079822;28;20040;-72
2021/08/04 06:56:27;;;;;;;19.98;15.82;;;14.30;86.30;;;;;;5091013;28;20511;-71
2021/08/04 06:58:55;;;;;;;27.38;16.20;;;14.40;86.10;;;;;;5091426;28;20055;-71
2021/08/04 07:01:22;;;;;;;25.23;16.42;;;14.40;86.10;;;;;;5083862;28;20388;-72
2021/08/04 07:03:50;;;;;;;23.00;16.45;;;14.50;86.00;;;;;;5092292;28;20118;-71
2021/08/04 07:06:18;;;;;;;21.73;16.60;;;14.50;85.90;;;;;;5086866;28;20435;-73
2021/08/04 07:08:46;;;;;;;22.42;16.92;;;14.60;85.70;;;;;;5082332;28;20043;-72
2021/08/04 07:11:13;;;;;;;23.23;16.58;;;14.60;85.60;;;;;;5090327;28;20047;-71
2021/08/04 07:13:41;;;;;;;23.42;16.50;;;14.60;85.50;;;;;;5074805;28;20044;-71
2021/08/04 07:16:09;;;;;;;20.15;16.02;;;14.70;85.40;;;;;;5082822;28;20056;-72
2021/08/04 07:18:37;;;;;;;22.33;15.98;;;14.80;85.30;;;;;;5090079;28;20048;-72
2021/08/04 07:21:04;;;;;;;23.30;15.82;;;14.80;85.10;;;;;;5090004;28;20044;-72
2021/08/04 07:23:32;;;;;;;21.00;15.65;;;14.90;84.90;;;;;;5092620;28;20056;-72
2021/08/04 07:25:59;;;;;;;24.30;15.70;;;15.00;84.70;;;;;;5088580;28;20052;-72
2021/08/04 07:28:27;;;;;;;21.40;16.23;;;15.00;84.40;;;;;;5089761;28;20052;-72
2021/08/04 07:30:54;;;;;;;22.33;16.48;;;15.20;84.20;;;;;;5085336;28;20399;-73
2021/08/04 07:33:22;;;;;;;24.92;16.50;;;15.30;83.90;;;;;;5088094;28;20360;-73
2021/08/04 07:35:50;;;;;;;24.15;16.00;;;15.30;83.70;;;;;;5082988;28;20052;-71
2021/08/04 07:38:17;;;;;;;23.27;16.98;;;15.50;83.40;;;;;;5091490;28;20075;-70
2021/08/04 07:40:45;;;;;;;27.10;16.17;;;15.70;83.10;;;;;;5075296;28;20047;-71
2021/08/04 07:43:12;;;;;;;24.05;16.98;;;15.70;82.80;;;;;;5091201;28;20490;-71
2021/08/04 07:45:41;;;;;;;23.58;16.52;;;15.80;82.60;;;;;;5083028;28;20105;-73
2021/08/04 07:48:09;;;;;;;23.38;15.63;;;16.00;82.40;;;;;;5083636;28;20055;-71
2021/08/04 07:50:37;;;;;;;23.45;15.57;;;16.10;82.00;;;;;;5082119;28;20051;-72
2021/08/04 07:53:04;;;;;;;19.73;14.88;;;16.20;81.60;;;;;;5088671;28;20398;-71
2021/08/04 07:55:32;;;;;;;20.08;14.43;;;16.30;81.30;;;;;;5082840;28;20053;-72
2021/08/04 07:57:59;;;;;;;24.35;14.95;;;16.30;80.90;;;;;;5083624;28;20040;-71
2021/08/04 08:00:27;;;;;;;20.88;14.77;;;16.40;80.60;;;;;;5085184;28;20062;-73
2021/08/04 08:02:55;;;;;;;21.90;14.90;;;16.50;80.20;;;;;;5089085;28;20048;-73
2021/08/04 08:05:23;;;;;;;19.38;15.07;;;16.60;79.70;;;;;;5088706;28;20471;-73
2021/08/04 08:07:51;;;;;;;20.33;14.45;;;16.60;79.70;;;;;;5091376;28;20032;-73
2021/08/04 08:10:19;;;;;;;18.85;13.82;;;16.70;79.50;;;;;;5090991;28;20376;-73
2021/08/04 08:12:47;;;;;;;22.30;14.02;;;16.80;79.30;;;;;;5090859;28;20449;-72
2021/08/04 08:15:15;;;;;;;17.38;13.50;;;16.80;79.00;;;;;;5089898;28;20122;-72
2021/08/04 08:17:43;;;;;;;17.42;14.18;;;16.90;78.50;;;;;;5085998;28;20418;-72
2021/08/04 08:20:11;;;;;;;25.02;13.98;;;17.00;78.30;;;;;;5087019;28;20975;-72
2021/08/04 08:22:39;;;;;;;18.60;13.90;;;17.00;78.10;;;;;;5091828;28;20056;-73
2021/08/04 08:25:12;;;;;;;18.38;13.70;;;17.10;77.90;;;;;;5078297;28;20079;-71
2021/08/04 08:27:41;;;;;;;17.42;13.60;;;17.20;77.70;;;;;;5079570;28;20044;-70
2021/08/04 08:30:11;;;;;;;15.73;12.75;;;17.30;77.40;;;;;;5084421;28;20052;-71
2021/08/04 08:32:38;;;;;;;19.33;13.73;;;17.40;77.20;;;;;;5086072;28;20051;-73
2021/08/04 08:35:08;;;;;;;20.95;13.27;;;17.60;76.60;;;;;;5076823;28;20052;-73
2021/08/04 08:37:36;;;;;;;17.23;13.23;;;17.70;76.50;;;;;;5078125;28;20047;-78
2021/08/04 08:40:04;;;;;;;17.52;13.20;;;17.80;76.10;;;;;;5079715;28;20384;-73
2021/08/04 08:42:32;;;;;;;17.40;13.95;;;17.90;75.80;;;;;;5089001;28;20043;-75
2021/08/04 08:45:01;;;;;;;16.40;13.35;;;18.00;75.20;;;;;;5090254;28;20056;-74
2021/08/04 08:47:30;;;;;;;18.52;12.50;;;18.10;74.80;;;;;;5091417;28;20681;-74
2021/08/04 08:50:00;;;;;;;16.17;12.65;;;18.20;74.30;;;;;;5089495;28;20265;-74
2021/08/04 08:52:28;;;;;;;18.40;11.95;;;18.30;73.90;;;;;;5089284;28;20063;-74
2021/08/04 08:54:59;;;;;;;17.27;12.25;;;18.40;73.60;;;;;;5078376;28;20060;-74
2021/08/04 08:57:26;;;;;;;18.48;12.00;;;18.50;73.10;;;;;;5080709;28;20044;-73
2021/08/04 08:59:58;;;;;;;20.65;12.88;;;18.60;72.70;;;;;;5087110;28;20058;-74
2021/08/04 09:02:27;;;;;;;22.55;11.88;;;18.70;72.20;;;;;;5089546;28;20398;-73
2021/08/04 09:05:00;;;;;;;14.82;11.13;;;18.90;71.80;;;;;;5077698;28;20059;-72
2021/08/04 09:07:36;;;;;;;13.10;11.27;;;18.90;71.30;;;;;;5087187;28;20045;-72
2021/08/04 09:10:21;;;;;;;14.70;11.10;;;19.10;70.90;;;;;;5084143;28;20051;-72
2021/08/04 09:12:50;;;;;;;15.50;11.50;;;19.20;69.90;;;;;;5089857;28;20040;-72
2021/08/04 09:15:24;;;;;;;14.07;11.30;;;19.30;69.70;;;;;;5088912;28;20036;-73
2021/08/04 09:18:19;;;;;;;12.45;10.93;;;19.40;69.20;;;;;;5086161;28;20047;-73
2021/08/04 09:20:53;;;;;;;12.63;9.95;;;19.60;68.80;;;;;;5080381;28;20033;-73
2021/08/04 09:23:27;;;;;;;10.23;9.13;;;19.80;68.60;;;;;;5093660;28;20040;-73
2021/08/04 09:26:01;;;;;;;23.35;9.23;;;19.80;67.60;;;;;;5092345;28;20059;-73
2021/08/04 09:28:30;;;;;;;13.13;8.05;;;19.90;66.40;;;;;;5086298;28;20051;-74
2021/08/04 09:31:03;;;;;;;14.45;10.00;;;20.00;65.80;;;;;;5086244;28;20067;-73
2021/08/04 09:33:38;;;;;;;8.07;7.28;;;20.00;65.00;;;;;;5077538;28;20044;-74
2021/08/04 09:36:06;;;;;;;10.75;9.32;;;20.10;64.30;;;;;;5089832;28;20062;-74
2021/08/04 09:38:34;;;;;;;9.15;7.28;;;20.20;64.10;;;;;;5091004;28;20040;-73
2021/08/04 09:41:16;;;;;;;9.50;7.32;;;20.20;62.60;;;;;;5080906;28;20059;-73
2021/08/04 09:43:48;;;;;;;8.60;7.25;;;20.30;62.50;;;;;;5093419;28;20055;-74
2021/08/04 09:46:21;;;;;;;;;;;20.30;62.70;;;;;;5074586;28;20048;-73
2021/08/04 09:49:07;;;;;;;7.30;6.43;;;20.60;62.50;;;;;;5099768;28;19924;-74
2021/08/04 09:51:35;;;;;;;10.38;7.82;;;20.80;61.70;;;;;;5093967;28;20067;-74
2021/08/04 09:54:13;;;;;;;11.48;8.27;;;21.10;60.90;;;;;;5092074;28;20051;-72
2021/08/04 09:56:57;;;;;;;16.17;9.05;;;21.40;60.20;;;;;;5085793;28;20403;-72
2021/08/04 09:59:25;;;;;;;8.80;7.65;;;21.50;59.10;;;;;;5087437;28;20050;-74
2021/08/04 10:01:56;;;;;;;18.45;10.93;;;21.40;59.40;;;;;;5087408;28;20052;-72
2021/08/04 10:04:24;;;;;;;15.18;12.65;;;21.30;59.70;;;;;;5085587;28;20055;-74
2021/08/04 10:07:04;;;;;;;14.35;12.85;;;21.00;61.20;;;;;;5091917;28;20487;-73
2021/08/04 10:09:33;;;;;;;17.48;13.65;;;20.60;62.80;;;;;;5082489;28;20430;-73
2021/08/04 10:12:03;;;;;;;16.83;13.57;;;20.30;63.80;;;;;;5086795;28;20055;-74
2021/08/04 10:14:31;;;;;;;16.42;13.52;;;20.00;64.70;;;;;;5089061;28;20036;-73
2021/08/04 10:16:59;;;;;;;15.05;13.43;;;19.90;65.20;;;;;;5090603;28;20489;-72
2021/08/04 10:19:31;;;;;;;17.83;12.68;;;19.80;65.70;;;;;;5089597;28;20044;-72
2021/08/04 10:22:01;;;;;;;15.98;12.30;;;19.70;66.10;;;;;;5080071;28;20049;-72
2021/08/04 10:24:30;;;;;;;14.93;13.27;;;19.60;66.30;;;;;;5090046;28;20036;-72
2021/08/04 10:26:58;;;;;;;16.35;12.90;;;19.50;66.30;;;;;;5087198;28;20048;-72
2021/08/04 10:29:26;;;;;;;15.80;11.88;;;19.40;66.00;;;;;;5078770;28;20039;-73
2021/08/04 10:31:55;;;;;;;19.63;12.23;;;19.30;66.20;;;;;;5088396;28;20608;-73
2021/08/04 10:34:26;;;;;;;14.18;11.90;;;19.30;66.20;;;;;;5068020;28;20479;-72
2021/08/04 10:36:57;;;;;;;15.02;10.95;;;19.60;66.00;;;;;;5076188;28;20047;-72
2021/08/04 10:39:27;;;;;;;16.40;10.88;;;19.80;65.60;;;;;;5080801;28;20063;-73
2021/08/04 10:42:05;;;;;;;15.13;11.63;;;19.90;63.70;;;;;;5086741;28;20048;-73
2021/08/04 10:44:34;;;;;;;13.82;11.27;;;19.90;63.60;;;;;;5091557;28;20044;-72
2021/08/04 10:47:06;;;;;;;13.05;10.23;;;19.90;64.10;;;;;;5101257;28;20063;-73
2021/08/04 10:49:35;;;;;;;13.00;10.63;;;20.00;64.00;;;;;;5087073;28;20056;-73
2021/08/04 10:52:07;;;;;;;15.07;10.30;;;20.10;63.40;;;;;;5087207;28;20503;-73
2021/08/04 10:54:35;;;;;;;9.32;7.55;;;20.10;63.30;;;;;;5092159;28;20487;-73
2021/08/04 10:57:03;;;;;;;15.48;8.07;;;20.30;63.00;;;;;;5071104;28;20059;-72
2021/08/04 10:59:32;;;;;;;10.40;8.40;;;20.50;62.00;;;;;;5101003;28;20048;-73
2021/08/04 11:02:02;;;;;;;14.13;8.75;;;20.80;60.80;;;;;;5092172;28;20056;-73
2021/08/04 11:04:33;;;;;;;13.05;9.73;;;21.30;59.50;;;;;;5087582;28;20052;-73
2021/08/04 11:07:08;;;;;;;7.22;6.63;;;21.80;58.60;;;;;;5086329;28;20510;-74
2021/08/04 11:09:41;;;;;;;9.23;7.75;;;22.20;57.40;;;;;;5087558;28;20051;-73
2021/08/04 11:12:11;;;;;;;6.88;6.15;;;22.30;56.20;;;;;;5091830;28;20402;-73
2021/08/04 11:14:48;;;;;;;8.98;7.90;;;22.60;55.90;;;;;;5073391;28;20616;-73
2021/08/04 11:17:24;;;;;;;9.13;7.72;;;22.90;54.40;;;;;;5081395;28;20057;-73
2021/08/04 11:19:58;;;;;;;7.68;6.75;;;23.10;53.00;;;;;;5071556;28;20044;-73
2021/08/04 11:22:35;;;;;;;6.72;6.05;;;23.00;52.50;;;;;;5091031;28;20410;-73
2021/08/04 11:25:10;;;;;;;6.88;5.50;;;22.70;52.80;;;;;;5071861;28;20498;-73
2021/08/04 11:27:44;;;;;;;8.50;6.00;;;22.60;53.40;;;;;;5073128;28;20052;-73
2021/08/04 11:30:27;;;;;;;9.18;6.25;;;22.90;52.70;;;;;;5092575;28;20483;-73
2021/08/04 11:33:22;;;;;;;8.77;7.30;;;23.30;52.20;;;;;;5092162;28;20150;-74
2021/08/04 11:36:11;;;;;;;7.43;6.70;;;23.70;50.70;;;;;;5090494;28;20043;-72
2021/08/04 11:39:12;;;;;;;4.03;3.72;;;24.00;49.20;;;;;;5083332;28;20059;-74
2021/08/04 11:41:45;;;;;;;8.35;5.05;;;24.10;47.70;;;;;;5091733;28;20063;-74
2021/08/04 11:44:16;;;;;;;10.23;6.05;;;24.20;48.30;;;;;;5076921;28;20051;-74
2021/08/04 11:46:46;;;;;;;7.05;6.35;;;24.30;46.90;;;;;;5072052;28;20044;-74
2021/08/04 11:49:36;;;;;;;8.75;4.80;;;24.40;47.00;;;;;;5071730;28;20045;-74
2021/08/04 11:52:07;;;;;;;6.32;5.32;;;24.60;47.40;;;;;;5070537;28;20053;-74
2021/08/04 11:54:59;;;;;;;7.32;5.55;;;24.90;45.50;;;;;;5070870;28;20048;-73
2021/08/04 11:57:43;;;;;;;6.65;5.25;;;24.90;44.60;;;;;;5080552;28;20053;-73
2021/08/04 12:00:28;;;;;;;7.07;4.80;;;24.80;45.20;;;;;;5086258;28;20047;-73
2021/08/04 12:02:56;;;;;;;5.70;4.70;;;25.00;45.50;;;;;;5083725;28;20100;-73
2021/08/04 12:05:23;;;;;;;5.80;4.43;;;25.00;45.80;;;;;;5085610;28;20058;-73
2021/08/04 12:07:51;;;;;;;9.05;4.80;;;24.90;45.60;;;;;;5078256;28;20044;-72
2021/08/04 12:10:21;;;;;;;12.10;5.80;;;24.70;44.80;;;;;;5069410;28;20054;-73
2021/08/04 12:12:51;;;;;;;4.80;4.32;;;24.20;45.10;;;;;;5078836;28;20043;-73
2021/08/04 12:15:24;;;;;;;9.63;5.03;;;24.00;46.10;;;;;;5074198;28;20048;-73
2021/08/04 12:18:04;;;;;;;11.55;5.47;;;24.10;45.70;;;;;;5091807;28;20055;-73
2021/08/04 12:20:37;;;;;;;9.43;5.60;;;24.00;46.20;;;;;;5091631;28;20066;-73
2021/08/04 12:23:07;;;;;;;9.60;5.68;;;23.80;45.90;;;;;;5091745;28;20052;-73
2021/08/04 12:25:39;;;;;;;9.05;5.53;;;23.70;46.10;;;;;;5083273;28;20048;-74
2021/08/04 12:28:08;;;;;;;20.60;5.50;;;23.70;46.70;;;;;;5076684;28;20044;-73
2021/08/04 12:30:40;;;;;;;9.23;4.82;;;24.20;46.00;;;;;;5073299;28;20041;-74
2021/08/04 12:33:20;;;;;;;8.52;5.32;;;24.70;45.30;;;;;;5091716;28;20052;-73
2021/08/04 12:35:50;;;;;;;7.28;5.43;;;24.90;45.00;;;;;;5081985;28;20510;-74
2021/08/04 12:38:43;;;;;;;7.63;4.90;;;24.80;44.70;;;;;;5080551;28;20044;-73
2021/08/04 12:41:24;;;;;;;5.50;4.65;;;24.80;46.00;;;;;;5069878;28;20044;-74
2021/08/04 12:43:55;;;;;;;6.57;5.28;;;25.50;45.30;;;;;;5080601;28;20495;-73
2021/08/04 12:46:32;;;;;;;6.80;4.50;;;26.20;42.60;;;;;;5073459;28;20036;-74
2021/08/04 12:49:01;;;;;;;7.28;4.30;;;26.50;41.60;;;;;;5091433;28;20048;-73